• Join FlightAware (Why Join?)
  • Login
  • US Flag 
05:30PM EDT


 

Airport Tracker/Info


-or-


 

Live Flight TrackerFlight Track Log ✈ ASQ5750 ✈ 29-Apr-2013 ✈ KCVG - KORD

Flight Track Log - Related Links

Times and Time Zones

All times are in EDT time to prevent confusion due to time zone crossing. See the ASQ5750 flight status page for this flight to view local times or setup timezone preferences in your user account.

Time Position Orientation Groundspeed Altitude Reporting Facility
EDT Latitude Longitude Course Direction KTS MPH feet Rate Location/Type
10:54AM 39.0500 -84.6833 313° West 160 184 1,400  Level Cincinnati TRACON
10:55AM 39.0500 -84.7333 270° West 179 206 3,400 2,280 Climbing Cincinnati TRACON
10:56AM 39.0500 -84.8167 270° West 257 296 5,600 2,520 Climbing Cincinnati TRACON
10:57AM 39.0917 -84.9089 300° West 276 318 9,200 2,520 Climbing Indianapolis Center
10:58AM 38.9133 -84.7919 313° West  Level FlightAware Approximate
10:58AM 39.1700 -84.9272 350° North 284 327 11,700  Level Indianapolis Center
10:59AM 38.9605 -84.8580 313° West  Level FlightAware Approximate
10:59AM 39.2558 -84.9478 349° North 309 356 12,600  Level Indianapolis Center
11:00AM 39.3544 -84.9706 350° North 347 399 13,700 1,020 Climbing Indianapolis Center
11:01AM 39.4750 -84.9983 350° North 373 429 14,800 600 Climbing Indianapolis Center
11:02AM 39.5819 -85.0269 348° North 383 441 15,000 540 Climbing Indianapolis Center
11:03AM 39.6519 -85.1247 313° West 370 426 16,000 1,380 Climbing Indianapolis Center
11:04AM 39.7342 -85.1964 326° Northwest 361 415 17,900 1,440 Climbing Indianapolis Center
11:06AM 39.8222 -85.2525 334° Northwest 352 405 19,000 720 Climbing Indianapolis Center
11:07AM 39.9175 -85.3128 334° Northwest 371 427 19,500 960 Climbing Indianapolis Center
11:08AM 40.0328 -85.3853 334° Northwest 389 448 21,000 1,140 Climbing Indianapolis Center
11:09AM 40.1311 -85.4467 334° Northwest 390 449 21,900 660 Climbing Indianapolis Center
11:09AM 40.1639 -85.4683 333° Northwest 396 456 22,000 60 Climbing Chicago Center
11:10AM 40.2853 -85.5450 334° Northwest 414 476 22,000  Level Chicago Center
11:11AM 40.3919 -85.6125 334° Northwest 423 487 22,000  Level Chicago Center
11:12AM 40.4989 -85.6789 335° Northwest 424 488 22,000  Level Chicago Center
11:13AM 40.6131 -85.7269 342° North 427 491 22,000  Level Chicago Center
11:14AM 40.7325 -85.7819 341° North 411 473 22,000  Level Chicago Center
11:15AM 40.8403 -85.8319 341° North 409 471 22,000  Level Chicago Center
11:16AM 40.9519 -85.8822 341° North 420 483 22,000  Level Chicago Center
11:17AM 41.0647 -85.9344 341° North 426 490 22,000  Level Chicago Center
11:18AM 41.1781 -85.9875 341° North 428 493 22,000  Level Chicago Center
11:19AM 41.2758 -86.0661 329° Northwest 420 483 22,000 -900 Level Chicago Center
11:20AM 41.3275 -86.1981 298° West 406 467 20,200 -1,800 Descending Chicago Center
11:21AM 41.3747 -86.3272 296° West 395 455 18,300 -2,040 Descending Chicago Center
11:22AM 41.4261 -86.4725 295° West 371 427 16,000 -2,100 Descending Chicago Center
11:24AM 41.4681 -86.5908 295° West 356 410 14,100 -1,680 Descending Chicago Center
11:25AM 41.5089 -86.7069 295° West 347 399 12,600 -1,020 Descending Chicago Center
11:26AM 41.5781 -86.7842 320° Northwest 357 411 12,000 -300 Descending Chicago Center
11:27AM 41.6722 -86.7953 355° North 346 398 12,000  Level Chicago Center
11:28AM 41.7864 -86.8111 354° North 348 400 12,000  Level Chicago Center
11:29AM 41.8783 -86.8469 344° North 346 398 12,000  Level Chicago Center
11:30AM 41.9528 -86.9283 321° Northwest 348 400 12,000 -300 Level Chicago Center
11:31AM 41.9833 -87.0456 289° West 338 389 11,500 -780 Descending Chicago Center
11:32AM 41.9836 -87.1714 270° West 338 389 10,500 -780 Descending Chicago Center
11:33AM 41.9842 -87.3167 270° West 328 377 10,000 -840 Descending Chicago Center
11:34AM 41.9833 -87.4200 269° West 285 328 8,900 -1,200 Descending Chicago Center
11:34AM 41.9833 -87.4500 270° West 272 313 8,400 -1,740 Descending Chicago TRACON
11:35AM 41.9833 -87.5500 270° West 277 319 6,800 -1,320 Descending Chicago TRACON
11:36AM 41.9833 -87.6333 270° West 235 270 5,900 -900 Descending Chicago TRACON